sensor_id;sensor_type;location;lat;lon;timestamp;pressure;altitude;pressure_sealevel;temperature;humidity
75656;BME280;64252;51.094;13.714;2024-03-17T00:02:10;101045.31;;;13.48;44.83
75656;BME280;64252;51.094;13.714;2024-03-17T00:04:36;101042.13;;;13.53;45.01
75656;BME280;64252;51.094;13.714;2024-03-17T00:07:02;101038.00;;;13.47;45.03
75656;BME280;64252;51.094;13.714;2024-03-17T00:09:27;101041.91;;;13.79;44.41
75656;BME280;64252;51.094;13.714;2024-03-17T00:11:53;101047.63;;;13.86;44.42
75656;BME280;64252;51.094;13.714;2024-03-17T00:14:19;101042.72;;;13.80;44.30
75656;BME280;64252;51.094;13.714;2024-03-17T00:16:45;101043.13;;;13.78;44.31
75656;BME280;64252;51.094;13.714;2024-03-17T00:19:10;101043.84;;;13.68;44.69
75656;BME280;64252;51.094;13.714;2024-03-17T00:21:36;101036.34;;;13.42;44.88
75656;BME280;64252;51.094;13.714;2024-03-17T00:24:01;101052.22;;;14.05;43.59
75656;BME280;64252;51.094;13.714;2024-03-17T00:26:28;101038.94;;;13.61;44.79
75656;BME280;64252;51.094;13.714;2024-03-17T00:28:55;101042.47;;;13.48;44.43
75656;BME280;64252;51.094;13.714;2024-03-17T00:31:20;101036.72;;;13.95;43.75
75656;BME280;64252;51.094;13.714;2024-03-17T00:33:46;101036.47;;;13.56;44.10
75656;BME280;64252;51.094;13.714;2024-03-17T00:36:11;101046.50;;;14.01;43.24
75656;BME280;64252;51.094;13.714;2024-03-17T00:38:37;101044.59;;;13.61;44.52
75656;BME280;64252;51.094;13.714;2024-03-17T00:41:03;101044.06;;;13.96;43.88
75656;BME280;64252;51.094;13.714;2024-03-17T00:43:29;101053.47;;;14.07;43.43
75656;BME280;64252;51.094;13.714;2024-03-17T00:45:54;101048.47;;;13.36;44.65
75656;BME280;64252;51.094;13.714;2024-03-17T00:48:20;101057.28;;;12.90;45.51
75656;BME280;64252;51.094;13.714;2024-03-17T00:50:46;101049.78;;;13.49;44.57
75656;BME280;64252;51.094;13.714;2024-03-17T00:53:11;101046.47;;;13.94;43.65
75656;BME280;64252;51.094;13.714;2024-03-17T00:55:37;101054.00;;;13.22;44.83
75656;BME280;64252;51.094;13.714;2024-03-17T00:58:03;101052.31;;;13.13;45.18
75656;BME280;64252;51.094;13.714;2024-03-17T01:00:29;101046.00;;;13.34;44.86
75656;BME280;64252;51.094;13.714;2024-03-17T01:02:54;101048.72;;;13.71;43.90
75656;BME280;64252;51.094;13.714;2024-03-17T01:05:21;101047.63;;;13.32;44.62
75656;BME280;64252;51.094;13.714;2024-03-17T01:07:46;101040.34;;;13.34;44.78
75656;BME280;64252;51.094;13.714;2024-03-17T01:10:15;101046.00;;;13.31;44.73
75656;BME280;64252;51.094;13.714;2024-03-17T01:12:41;101041.38;;;13.63;44.72
75656;BME280;64252;51.094;13.714;2024-03-17T01:15:07;101044.69;;;12.84;45.88
75656;BME280;64252;51.094;13.714;2024-03-17T01:17:34;101048.94;;;13.04;45.71
75656;BME280;64252;51.094;13.714;2024-03-17T01:20:00;101053.09;;;13.14;45.34
75656;BME280;64252;51.094;13.714;2024-03-17T01:22:25;101038.00;;;13.47;44.77
75656;BME280;64252;51.094;13.714;2024-03-17T01:24:51;101040.44;;;13.45;44.95
75656;BME280;64252;51.094;13.714;2024-03-17T01:27:17;101048.63;;;13.57;44.78
75656;BME280;64252;51.094;13.714;2024-03-17T01:29:42;101051.88;;;13.55;45.10
75656;BME280;64252;51.094;13.714;2024-03-17T01:32:11;101038.81;;;13.44;45.05
75656;BME280;64252;51.094;13.714;2024-03-17T01:34:39;101045.28;;;13.41;44.92
75656;BME280;64252;51.094;13.714;2024-03-17T01:37:05;101040.38;;;13.38;45.46
75656;BME280;64252;51.094;13.714;2024-03-17T01:39:30;101055.66;;;13.23;45.75
75656;BME280;64252;51.094;13.714;2024-03-17T01:41:58;101048.66;;;13.13;45.47
75656;BME280;64252;51.094;13.714;2024-03-17T01:44:27;101045.38;;;12.74;46.77
75656;BME280;64252;51.094;13.714;2024-03-17T01:46:55;101039.88;;;12.88;45.73
75656;BME280;64252;51.094;13.714;2024-03-17T01:49:21;101042.84;;;13.02;45.71
75656;BME280;64252;51.094;13.714;2024-03-17T01:51:48;101040.88;;;13.10;45.89
75656;BME280;64252;51.094;13.714;2024-03-17T01:54:15;101036.28;;;12.58;46.68
75656;BME280;64252;51.094;13.714;2024-03-17T01:56:42;101040.06;;;12.69;46.55
75656;BME280;64252;51.094;13.714;2024-03-17T01:59:09;101046.72;;;12.84;46.14
75656;BME280;64252;51.094;13.714;2024-03-17T02:01:36;101054.09;;;12.95;45.80
75656;BME280;64252;51.094;13.714;2024-03-17T02:04:02;101047.28;;;12.63;46.34
75656;BME280;64252;51.094;13.714;2024-03-17T02:06:28;101055.53;;;13.12;46.20
75656;BME280;64252;51.094;13.714;2024-03-17T02:08:54;101050.16;;;13.44;45.22
75656;BME280;64252;51.094;13.714;2024-03-17T02:11:31;101059.81;;;13.36;45.71
75656;BME280;64252;51.094;13.714;2024-03-17T02:13:57;101049.41;;;13.50;45.15
75656;BME280;64252;51.094;13.714;2024-03-17T02:16:24;101057.34;;;13.31;45.38
75656;BME280;64252;51.094;13.714;2024-03-17T02:18:54;101051.47;;;13.57;45.25
75656;BME280;64252;51.094;13.714;2024-03-17T02:21:20;101045.75;;;13.50;45.51
75656;BME280;64252;51.094;13.714;2024-03-17T02:23:48;101040.47;;;13.52;45.37
75656;BME280;64252;51.094;13.714;2024-03-17T02:26:13;101046.22;;;13.59;45.00
75656;BME280;64252;51.094;13.714;2024-03-17T02:28:43;101041.25;;;13.45;45.11
75656;BME280;64252;51.094;13.714;2024-03-17T02:31:11;101041.47;;;13.23;45.37
75656;BME280;64252;51.094;13.714;2024-03-17T02:33:37;101041.31;;;13.08;45.72
75656;BME280;64252;51.094;13.714;2024-03-17T02:36:03;101036.75;;;13.00;46.14
75656;BME280;64252;51.094;13.714;2024-03-17T02:38:40;101039.88;;;12.88;46.31
75656;BME280;64252;51.094;13.714;2024-03-17T02:41:24;101029.13;;;13.08;45.93
75656;BME280;64252;51.094;13.714;2024-03-17T02:43:50;101033.31;;;12.81;46.36
75656;BME280;64252;51.094;13.714;2024-03-17T02:46:17;101038.94;;;12.77;46.90
75656;BME280;64252;51.094;13.714;2024-03-17T02:48:45;101036.50;;;12.75;46.50
75656;BME280;64252;51.094;13.714;2024-03-17T02:51:13;101034.91;;;12.78;46.63
75656;BME280;64252;51.094;13.714;2024-03-17T02:53:43;101034.56;;;12.50;47.25
75656;BME280;64252;51.094;13.714;2024-03-17T02:56:10;101040.28;;;12.53;47.60
75656;BME280;64252;51.094;13.714;2024-03-17T02:58:37;101039.53;;;12.56;47.19
75656;BME280;64252;51.094;13.714;2024-03-17T03:01:04;101037.25;;;12.06;48.46
75656;BME280;64252;51.094;13.714;2024-03-17T03:03:30;101032.75;;;12.35;48.06
75656;BME280;64252;51.094;13.714;2024-03-17T03:05:56;101039.34;;;11.33;50.02
75656;BME280;64252;51.094;13.714;2024-03-17T03:08:27;101029.47;;;11.99;49.32
75656;BME280;64252;51.094;13.714;2024-03-17T03:10:52;101032.59;;;12.20;48.23
75656;BME280;64252;51.094;13.714;2024-03-17T03:13:18;101038.13;;;12.10;48.67
75656;BME280;64252;51.094;13.714;2024-03-17T03:15:46;101041.00;;;12.13;48.55
75656;BME280;64252;51.094;13.714;2024-03-17T03:18:13;101034.16;;;12.14;48.54
75656;BME280;64252;51.094;13.714;2024-03-17T03:20:39;101040.56;;;12.11;48.42
75656;BME280;64252;51.094;13.714;2024-03-17T03:23:04;101032.59;;;12.20;48.07
75656;BME280;64252;51.094;13.714;2024-03-17T03:25:30;101035.63;;;12.05;48.82
75656;BME280;64252;51.094;13.714;2024-03-17T03:27:55;101042.56;;;11.81;49.19
75656;BME280;64252;51.094;13.714;2024-03-17T03:30:23;101035.59;;;11.75;49.47
75656;BME280;64252;51.094;13.714;2024-03-17T03:32:49;101035.47;;;11.94;48.87
75656;BME280;64252;51.094;13.714;2024-03-17T03:35:14;101039.28;;;12.05;48.71
75656;BME280;64252;51.094;13.714;2024-03-17T03:37:41;101039.69;;;12.07;48.41
75656;BME280;64252;51.094;13.714;2024-03-17T03:40:07;101037.72;;;12.11;48.96
75656;BME280;64252;51.094;13.714;2024-03-17T03:42:45;101037.06;;;12.21;48.59
75656;BME280;64252;51.094;13.714;2024-03-17T03:45:11;101039.00;;;12.47;48.08
75656;BME280;64252;51.094;13.714;2024-03-17T03:47:40;101044.88;;;12.31;48.19
75656;BME280;64252;51.094;13.714;2024-03-17T03:50:10;101039.47;;;12.53;47.64
75656;BME280;64252;51.094;13.714;2024-03-17T03:52:39;101049.22;;;12.92;46.88
75656;BME280;64252;51.094;13.714;2024-03-17T03:55:09;101048.78;;;12.90;47.28
75656;BME280;64252;51.094;13.714;2024-03-17T03:57:43;101046.97;;;13.08;47.01
75656;BME280;64252;51.094;13.714;2024-03-17T04:00:16;101048.25;;;13.14;46.58
75656;BME280;64252;51.094;13.714;2024-03-17T04:02:48;101047.50;;;13.17;46.26
75656;BME280;64252;51.094;13.714;2024-03-17T04:05:15;101055.56;;;13.15;46.86
75656;BME280;64252;51.094;13.714;2024-03-17T04:07:40;101053.22;;;13.25;47.05
75656;BME280;64252;51.094;13.714;2024-03-17T04:10:08;101040.59;;;13.18;47.38
75656;BME280;64252;51.094;13.714;2024-03-17T04:12:35;101046.00;;;13.34;46.34
75656;BME280;64252;51.094;13.714;2024-03-17T04:15:01;101049.09;;;13.18;46.57
75656;BME280;64252;51.094;13.714;2024-03-17T04:17:28;101050.03;;;13.30;46.47
75656;BME280;64252;51.094;13.714;2024-03-17T04:19:54;101046.09;;;13.04;46.67
75656;BME280;64252;51.094;13.714;2024-03-17T04:22:20;101054.19;;;13.43;46.51
75656;BME280;64252;51.094;13.714;2024-03-17T04:24:48;101053.41;;;13.46;46.59
75656;BME280;64252;51.094;13.714;2024-03-17T04:27:27;101052.63;;;13.49;46.06
75656;BME280;64252;51.094;13.714;2024-03-17T04:29:54;101057.56;;;13.59;46.15
75656;BME280;64252;51.094;13.714;2024-03-17T04:32:21;101058.25;;;13.42;46.22
75656;BME280;64252;51.094;13.714;2024-03-17T04:34:46;101063.00;;;13.31;45.73
75656;BME280;64252;51.094;13.714;2024-03-17T04:37:12;101062.66;;;13.36;45.32
75656;BME280;64252;51.094;13.714;2024-03-17T04:39:42;101063.59;;;13.50;45.56
75656;BME280;64252;51.094;13.714;2024-03-17T04:42:12;101059.22;;;13.16;45.76
75656;BME280;64252;51.094;13.714;2024-03-17T04:44:42;101058.25;;;13.42;45.34
75656;BME280;64252;51.094;13.714;2024-03-17T04:47:08;101057.94;;;13.54;45.07
75656;BME280;64252;51.094;13.714;2024-03-17T04:52:04;101057.69;;;13.73;44.74
75656;BME280;64252;51.094;13.714;2024-03-17T04:54:31;101050.25;;;13.58;44.97
75656;BME280;64252;51.094;13.714;2024-03-17T04:56:57;101057.84;;;13.98;44.24
75656;BME280;64252;51.094;13.714;2024-03-17T04:59:22;101061.75;;;13.76;44.40
75656;BME280;64252;51.094;13.714;2024-03-17T05:01:48;101063.16;;;13.48;44.86
75656;BME280;64252;51.094;13.714;2024-03-17T05:04:14;101069.72;;;13.56;45.09
75656;BME280;64252;51.094;13.714;2024-03-17T05:06:40;101078.19;;;14.07;44.39
75656;BME280;64252;51.094;13.714;2024-03-17T05:09:08;101074.38;;;13.85;44.39
75656;BME280;64252;51.094;13.714;2024-03-17T05:11:33;101068.47;;;13.53;45.26
75656;BME280;64252;51.094;13.714;2024-03-17T05:14:00;101082.88;;;13.78;44.99
75656;BME280;64252;51.094;13.714;2024-03-17T05:16:26;101081.94;;;13.67;44.81
75656;BME280;64252;51.094;13.714;2024-03-17T05:18:55;101084.63;;;14.00;44.90
75656;BME280;64252;51.094;13.714;2024-03-17T05:21:21;101077.59;;;14.38;43.78
75656;BME280;64252;51.094;13.714;2024-03-17T05:23:47;101075.31;;;13.49;45.01
75656;BME280;64252;51.094;13.714;2024-03-17T05:26:14;101079.56;;;13.69;44.84
75656;BME280;64252;51.094;13.714;2024-03-17T05:28:39;101081.03;;;14.07;44.55
75656;BME280;64252;51.094;13.714;2024-03-17T05:31:05;101083.44;;;14.01;44.55
75656;BME280;64252;51.094;13.714;2024-03-17T05:33:30;101091.56;;;14.03;44.52
75656;BME280;64252;51.094;13.714;2024-03-17T05:35:58;101094.41;;;14.03;44.63
75656;BME280;64252;51.094;13.714;2024-03-17T05:38:26;101088.84;;;14.28;44.11
75656;BME280;64252;51.094;13.714;2024-03-17T05:41:05;101094.44;;;14.14;44.21
75656;BME280;64252;51.094;13.714;2024-03-17T05:43:34;101090.41;;;14.15;43.88
75656;BME280;64252;51.094;13.714;2024-03-17T05:46:07;101098.16;;;13.63;44.56
75656;BME280;64252;51.094;13.714;2024-03-17T05:48:42;101097.78;;;13.68;44.59
75656;BME280;64252;51.094;13.714;2024-03-17T05:51:10;101094.09;;;13.64;44.64
75656;BME280;64252;51.094;13.714;2024-03-17T05:53:36;101097.72;;;14.12;43.64
75656;BME280;64252;51.094;13.714;2024-03-17T05:56:04;101099.13;;;14.43;43.14
75656;BME280;64252;51.094;13.714;2024-03-17T05:58:30;101105.88;;;14.21;43.79
75656;BME280;64252;51.094;13.714;2024-03-17T06:00:56;101101.56;;;14.44;43.35
75656;BME280;64252;51.094;13.714;2024-03-17T06:03:21;101111.56;;;14.21;43.61
75656;BME280;64252;51.094;13.714;2024-03-17T06:05:48;101108.91;;;14.49;42.67
75656;BME280;64252;51.094;13.714;2024-03-17T06:08:14;101117.25;;;14.28;43.53
75656;BME280;64252;51.094;13.714;2024-03-17T06:10:46;101118.50;;;15.31;41.46
75656;BME280;64252;51.094;13.714;2024-03-17T06:13:12;101114.91;;;14.37;42.56
75656;BME280;64252;51.094;13.714;2024-03-17T06:15:39;101117.56;;;14.84;42.20
75656;BME280;64252;51.094;13.714;2024-03-17T06:18:05;101125.72;;;14.82;42.45
75656;BME280;64252;51.094;13.714;2024-03-17T06:20:34;101117.91;;;14.65;42.71
75656;BME280;64252;51.094;13.714;2024-03-17T06:23:00;101126.66;;;14.35;42.94
75656;BME280;64252;51.094;13.714;2024-03-17T06:25:25;101132.09;;;14.55;42.40
75656;BME280;64252;51.094;13.714;2024-03-17T06:27:52;101127.81;;;14.27;42.89
75656;BME280;64252;51.094;13.714;2024-03-17T06:30:18;101126.53;;;14.18;43.59
75656;BME280;64252;51.094;13.714;2024-03-17T06:32:45;101136.28;;;14.85;42.25
75656;BME280;64252;51.094;13.714;2024-03-17T06:35:14;101129.59;;;13.44;44.88
75656;BME280;64252;51.094;13.714;2024-03-17T06:37:51;101142.75;;;13.66;44.90
75656;BME280;64252;51.094;13.714;2024-03-17T06:40:17;101138.81;;;13.78;44.32
75656;BME280;64252;51.094;13.714;2024-03-17T06:42:44;101127.31;;;14.11;44.30
75656;BME280;64252;51.094;13.714;2024-03-17T06:45:09;101138.09;;;13.44;44.88
75656;BME280;64252;51.094;13.714;2024-03-17T06:47:35;101139.91;;;13.66;45.17
75656;BME280;64252;51.094;13.714;2024-03-17T06:50:02;101140.59;;;13.49;45.11
75656;BME280;64252;51.094;13.714;2024-03-17T06:52:28;101138.94;;;13.92;44.31
75656;BME280;64252;51.094;13.714;2024-03-17T06:54:54;101133.09;;;14.25;43.63
75656;BME280;64252;51.094;13.714;2024-03-17T06:57:19;101141.09;;;14.13;43.86
75656;BME280;64252;51.094;13.714;2024-03-17T06:59:45;101137.75;;;13.49;44.66
75656;BME280;64252;51.094;13.714;2024-03-17T07:02:11;101140.00;;;13.73;43.96
75656;BME280;64252;51.094;13.714;2024-03-17T07:04:41;101140.41;;;13.75;44.55
75656;BME280;64252;51.094;13.714;2024-03-17T07:07:06;101146.41;;;14.18;43.71
75656;BME280;64252;51.094;13.714;2024-03-17T07:09:32;101153.72;;;14.19;43.68
75656;BME280;64252;51.094;13.714;2024-03-17T07:11:57;101154.94;;;13.70;44.19
75656;BME280;64252;51.094;13.714;2024-03-17T07:14:23;101154.56;;;14.23;43.04
75656;BME280;64252;51.094;13.714;2024-03-17T07:16:51;101152.00;;;14.03;43.65
75656;BME280;64252;51.094;13.714;2024-03-17T07:19:17;101168.53;;;14.42;42.86
75656;BME280;64252;51.094;13.714;2024-03-17T07:21:43;101155.69;;;13.23;45.05
75656;BME280;64252;51.094;13.714;2024-03-17T07:24:08;101171.09;;;13.59;43.65
75656;BME280;64252;51.094;13.714;2024-03-17T07:26:34;101168.25;;;14.03;43.04
75656;BME280;64252;51.094;13.714;2024-03-17T07:29:00;101165.59;;;13.80;43.00
75656;BME280;64252;51.094;13.714;2024-03-17T07:31:25;101173.69;;;14.29;42.09
75656;BME280;64252;51.094;13.714;2024-03-17T07:33:51;101171.06;;;13.55;43.20
75656;BME280;64252;51.094;13.714;2024-03-17T07:36:16;101168.00;;;14.26;42.34
75656;BME280;64252;51.094;13.714;2024-03-17T07:38:42;101164.09;;;13.93;43.18
75656;BME280;64252;51.094;13.714;2024-03-17T07:41:08;101172.56;;;13.86;42.60
75656;BME280;64252;51.094;13.714;2024-03-17T07:43:36;101171.22;;;13.73;42.99
75656;BME280;64252;51.094;13.714;2024-03-17T07:46:10;101167.91;;;14.73;42.45
75656;BME280;64252;51.094;13.714;2024-03-17T07:48:40;101167.13;;;14.83;40.96
75656;BME280;64252;51.094;13.714;2024-03-17T07:51:08;101167.09;;;14.73;40.90
75656;BME280;64252;51.094;13.714;2024-03-17T07:53:36;101179.09;;;15.31;40.58
75656;BME280;64252;51.094;13.714;2024-03-17T07:56:15;101171.00;;;14.47;41.12
75656;BME280;64252;51.094;13.714;2024-03-17T07:58:42;101166.84;;;15.10;40.67
75656;BME280;64252;51.094;13.714;2024-03-17T08:01:12;101182.09;;;14.12;42.08
75656;BME280;64252;51.094;13.714;2024-03-17T08:03:40;101176.34;;;14.04;42.13
75656;BME280;64252;51.094;13.714;2024-03-17T08:06:07;101170.03;;;14.98;40.62
75656;BME280;64252;51.094;13.714;2024-03-17T08:08:34;101178.16;;;14.99;40.22
75656;BME280;64252;51.094;13.714;2024-03-17T08:11:00;101173.13;;;15.90;38.80
75656;BME280;64252;51.094;13.714;2024-03-17T08:13:28;101176.69;;;15.44;39.09
75656;BME280;64252;51.094;13.714;2024-03-17T08:16:03;101176.59;;;15.09;39.33
75656;BME280;64252;51.094;13.714;2024-03-17T08:18:31;101175.56;;;15.63;39.03
75656;BME280;64252;51.094;13.714;2024-03-17T08:20:57;101173.09;;;15.82;37.85
75656;BME280;64252;51.094;13.714;2024-03-17T08:23:23;101178.38;;;15.52;38.01
75656;BME280;64252;51.094;13.714;2024-03-17T08:25:56;101181.22;;;16.30;37.08
75656;BME280;64252;51.094;13.714;2024-03-17T08:28:23;101171.88;;;15.84;38.27
75656;BME280;64252;51.094;13.714;2024-03-17T08:30:58;101178.31;;;16.73;36.16
75656;BME280;64252;51.094;13.714;2024-03-17T08:33:25;101181.22;;;16.30;36.50
75656;BME280;64252;51.094;13.714;2024-03-17T08:35:58;101180.34;;;16.72;36.34
75656;BME280;64252;51.094;13.714;2024-03-17T08:38:25;101165.88;;;17.25;34.54
75656;BME280;64252;51.094;13.714;2024-03-17T08:40:53;101163.31;;;16.47;37.21
75656;BME280;64252;51.094;13.714;2024-03-17T08:43:21;101167.22;;;16.96;36.64
75656;BME280;64252;51.094;13.714;2024-03-17T08:46:00;101155.88;;;16.85;36.73
75656;BME280;64252;51.094;13.714;2024-03-17T08:48:28;101169.75;;;16.73;37.40
75656;BME280;64252;51.094;13.714;2024-03-17T08:50:54;101165.41;;;17.34;36.76
75656;BME280;64252;51.094;13.714;2024-03-17T08:53:21;101162.19;;;17.28;36.02
75656;BME280;64252;51.094;13.714;2024-03-17T08:55:47;101167.03;;;17.38;35.63
75656;BME280;64252;51.094;13.714;2024-03-17T08:58:12;101170.50;;;16.91;35.82
75656;BME280;64252;51.094;13.714;2024-03-17T09:00:38;101166.00;;;16.97;35.19
75656;BME280;64252;51.094;13.714;2024-03-17T09:03:04;101159.19;;;18.08;33.41
75656;BME280;64252;51.094;13.714;2024-03-17T09:05:32;101163.53;;;17.79;34.58
75656;BME280;64252;51.094;13.714;2024-03-17T09:07:59;101156.94;;;17.89;34.14
75656;BME280;64252;51.094;13.714;2024-03-17T09:10:26;101151.09;;;18.03;34.69
75656;BME280;64252;51.094;13.714;2024-03-17T09:12:52;101141.84;;;17.19;34.87
75656;BME280;64252;51.094;13.714;2024-03-17T09:15:17;101150.69;;;17.42;35.51
75656;BME280;64252;51.094;13.714;2024-03-17T09:17:43;101150.38;;;17.26;35.01
75656;BME280;64252;51.094;13.714;2024-03-17T09:20:11;101140.81;;;18.54;33.36
75656;BME280;64252;51.094;13.714;2024-03-17T09:22:38;101143.72;;;17.50;34.66
75656;BME280;64252;51.094;13.714;2024-03-17T09:25:10;101133.13;;;17.99;34.73
75656;BME280;64252;51.094;13.714;2024-03-17T09:27:36;101138.19;;;17.81;33.47
75656;BME280;64252;51.094;13.714;2024-03-17T09:30:05;101150.22;;;16.75;34.14
75656;BME280;64252;51.094;13.714;2024-03-17T09:32:37;101143.56;;;17.06;33.58
75656;BME280;64252;51.094;13.714;2024-03-17T09:35:04;101133.94;;;17.44;33.41
75656;BME280;64252;51.094;13.714;2024-03-17T09:37:30;101134.19;;;17.71;32.45
75656;BME280;64252;51.094;13.714;2024-03-17T09:39:57;101132.25;;;18.50;32.13
75656;BME280;64252;51.094;13.714;2024-03-17T09:42:25;101127.94;;;18.31;32.22
75656;BME280;64252;51.094;13.714;2024-03-17T09:44:52;101121.16;;;17.70;32.39
75656;BME280;64252;51.094;13.714;2024-03-17T09:47:20;101121.84;;;18.67;32.05
75656;BME280;64252;51.094;13.714;2024-03-17T09:49:47;101120.47;;;17.48;33.04
75656;BME280;64252;51.094;13.714;2024-03-17T09:52:23;101127.56;;;17.23;33.61
75656;BME280;64252;51.094;13.714;2024-03-17T09:55:01;101124.97;;;17.42;33.08
75656;BME280;64252;51.094;13.714;2024-03-17T09:57:36;101120.88;;;16.67;34.83
75656;BME280;64252;51.094;13.714;2024-03-17T10:00:04;101122.84;;;18.09;32.22
75656;BME280;64252;51.094;13.714;2024-03-17T10:02:47;101118.09;;;17.36;32.58
75656;BME280;64252;51.094;13.714;2024-03-17T10:05:21;101121.94;;;17.71;32.07
75656;BME280;64252;51.094;13.714;2024-03-17T10:07:47;101103.69;;;17.54;32.56
75656;BME280;64252;51.094;13.714;2024-03-17T10:10:17;101113.78;;;17.73;31.75
75656;BME280;64252;51.094;13.714;2024-03-17T10:12:43;101109.56;;;16.42;33.49
75656;BME280;64252;51.094;13.714;2024-03-17T10:15:12;101116.63;;;18.21;31.49
75656;BME280;64252;51.094;13.714;2024-03-17T10:17:38;101110.19;;;18.84;30.38
75656;BME280;64252;51.094;13.714;2024-03-17T10:23:00;101107.59;;;18.63;30.99
75656;BME280;64252;51.094;13.714;2024-03-17T10:25:34;101109.06;;;18.37;31.25
75656;BME280;64252;51.094;13.714;2024-03-17T10:28:01;101113.31;;;18.63;30.52
75656;BME280;64252;51.094;13.714;2024-03-17T10:30:27;101113.09;;;18.81;31.27
75656;BME280;64252;51.094;13.714;2024-03-17T10:32:56;101107.53;;;19.01;31.23
75656;BME280;64252;51.094;13.714;2024-03-17T10:35:27;101110.72;;;17.39;32.38
75656;BME280;64252;51.094;13.714;2024-03-17T10:38:00;101114.56;;;17.77;31.85
75656;BME280;64252;51.094;13.714;2024-03-17T10:40:27;101115.59;;;17.45;32.66
75656;BME280;64252;51.094;13.714;2024-03-17T10:42:52;101112.91;;;17.79;33.17
75656;BME280;64252;51.094;13.714;2024-03-17T10:45:18;101108.44;;;17.16;33.28
75656;BME280;64252;51.094;13.714;2024-03-17T10:47:50;101111.88;;;16.83;33.72
75656;BME280;64252;51.094;13.714;2024-03-17T10:50:21;101113.28;;;17.26;33.61
75656;BME280;64252;51.094;13.714;2024-03-17T10:52:48;101105.31;;;17.59;32.94
75656;BME280;64252;51.094;13.714;2024-03-17T10:55:26;101099.44;;;19.22;30.38
75656;BME280;64252;51.094;13.714;2024-03-17T10:57:53;101095.63;;;19.02;30.83
75656;BME280;64252;51.094;13.714;2024-03-17T11:00:22;101096.38;;;18.01;31.65
75656;BME280;64252;51.094;13.714;2024-03-17T11:02:49;101099.72;;;18.71;31.38
75656;BME280;64252;51.094;13.714;2024-03-17T11:05:42;101094.34;;;17.50;32.58
75656;BME280;64252;51.094;13.714;2024-03-17T11:08:14;101097.38;;;17.84;32.43
75656;BME280;64252;51.094;13.714;2024-03-17T11:10:49;101090.97;;;17.69;32.45
75656;BME280;64252;51.094;13.714;2024-03-17T11:13:31;101088.13;;;17.66;31.70
75656;BME280;64252;51.094;13.714;2024-03-17T11:15:58;101091.88;;;17.52;32.22
75656;BME280;64252;51.094;13.714;2024-03-17T11:21:02;101078.88;;;17.44;31.77
75656;BME280;64252;51.094;13.714;2024-03-17T11:23:34;101070.91;;;19.42;31.12
75656;BME280;64252;51.094;13.714;2024-03-17T11:26:00;101079.91;;;18.87;30.97
75656;BME280;64252;51.094;13.714;2024-03-17T11:31:39;101081.41;;;18.95;29.36
75656;BME280;64252;51.094;13.714;2024-03-17T11:34:39;101073.00;;;19.65;29.77
75656;BME280;64252;51.094;13.714;2024-03-17T11:37:05;101080.59;;;19.52;30.02
75656;BME280;64252;51.094;13.714;2024-03-17T11:42:23;101073.31;;;17.26;33.17
75656;BME280;64252;51.094;13.714;2024-03-17T11:45:12;101079.53;;;17.69;33.39
75656;BME280;64252;51.094;13.714;2024-03-17T11:47:41;101081.94;;;18.53;31.89
75656;BME280;64252;51.094;13.714;2024-03-17T11:50:10;101071.88;;;18.00;32.12
75656;BME280;64252;51.094;13.714;2024-03-17T11:52:37;101079.53;;;17.66;32.57
75656;BME280;64252;51.094;13.714;2024-03-17T11:55:02;101079.53;;;17.66;31.68
75656;BME280;64252;51.094;13.714;2024-03-17T11:57:29;101082.56;;;16.72;33.99
75656;BME280;64252;51.094;13.714;2024-03-17T11:59:55;101074.16;;;17.20;32.40
75656;BME280;64252;51.094;13.714;2024-03-17T12:02:31;101075.41;;;17.74;32.22
75656;BME280;64252;51.094;13.714;2024-03-17T12:04:57;101067.00;;;18.01;31.67
75656;BME280;64252;51.094;13.714;2024-03-17T12:07:23;101060.47;;;19.82;29.75
75656;BME280;64252;51.094;13.714;2024-03-17T12:09:50;101061.69;;;19.81;29.37
75656;BME280;64252;51.094;13.714;2024-03-17T12:12:20;101060.19;;;19.73;29.00
75656;BME280;64252;51.094;13.714;2024-03-17T12:14:46;101051.34;;;19.64;28.61
75656;BME280;64252;51.094;13.714;2024-03-17T12:17:14;101044.06;;;20.26;28.17
75656;BME280;64252;51.094;13.714;2024-03-17T12:19:41;101046.00;;;19.12;29.61
75656;BME280;64252;51.094;13.714;2024-03-17T12:22:17;101052.81;;;18.95;30.52
75656;BME280;64252;51.094;13.714;2024-03-17T12:24:46;101044.84;;;18.08;31.62
75656;BME280;64252;51.094;13.714;2024-03-17T12:27:17;101058.63;;;18.20;31.82
75656;BME280;64252;51.094;13.714;2024-03-17T12:29:43;101048.25;;;17.96;31.94
75656;BME280;64252;51.094;13.714;2024-03-17T12:34:35;101055.28;;;18.25;31.09
75656;BME280;64252;51.094;13.714;2024-03-17T12:37:02;101044.63;;;18.29;31.18
75656;BME280;64252;51.094;13.714;2024-03-17T12:39:33;101041.00;;;17.88;31.49
75656;BME280;64252;51.094;13.714;2024-03-17T12:44:32;101036.34;;;17.56;32.08
75656;BME280;64252;51.094;13.714;2024-03-17T12:47:02;101030.19;;;18.06;32.13
75656;BME280;64252;51.094;13.714;2024-03-17T12:49:33;101027.91;;;17.42;32.32
75656;BME280;64252;51.094;13.714;2024-03-17T12:52:00;101023.88;;;18.59;31.09
75656;BME280;64252;51.094;13.714;2024-03-17T12:54:27;101024.19;;;18.95;31.12
75656;BME280;64252;51.094;13.714;2024-03-17T12:57:04;101024.81;;;17.71;31.79
75656;BME280;64252;51.094;13.714;2024-03-17T12:59:48;101018.88;;;18.94;31.00
75656;BME280;64252;51.094;13.714;2024-03-17T13:02:33;101006.25;;;18.91;29.75
75656;BME280;64252;51.094;13.714;2024-03-17T13:05:19;101028.66;;;17.94;30.56